Chestnut Ridge, New York
Current Conditions -  °F | °C
As of 12:34 AM on Monday 22 Dec 2014 (Local Time) from KTEB Reporting Station
Overcast Overcast  
Wind Chill: 31°   Ceiling: 1400
Heat Index: 36°   Visibility: 10mi
Dew Point: 28°   Wind: 6mph
Humidity: 75%   Direction: 20°NNE
Pressure: 30.32"   Gusts: NA
Location:  41.0618°N, 74.0139°W
Report Text: KTEB 220534Z 02005KT 10SM OVC014 02/M02 A3032 RMK AO2
Loading
Personal Weather Stations






























Interactive Weather Map New forecast layout! Learn more

10-Day Weather Forecast

Advertisements
Track Severe Weather on mobile